Cielo Di Vaiano — D5AQ2 — position and weather

sailwx.info

Track history (hours):
 
Tides and Currents Weather Stations Pressure Air Temp Water Temp Dewpoint Dewpoint Depression Visibility Wind Speed Wind Dir Waves Ship Positions

Cielo Di Vaiano

Last reported at 2015-Aug-02 09:23 UTC. Time now 2015-Aug-02 10:23 UTC.
Position N 54°42' W 001°12'.

Length 183 m; draft 7 m.

Type: Cargo ship. MMSI: 636015421.

Date/timePositionNaut miles runAvg speedWind from/ knotsBaromVisibWave heightAir tempDewpointWater temp
2015-Aug-02 09:23N 54°42' W 001°12'0 0.0
2015-Aug-02 08:11N 54°42' W 001°12'0 0.0
2015-Aug-02 07:32N 54°42' W 001°12'0 0.0
2015-Aug-01 16:32N 54°42' W 001°12'0 0.0
2015-Aug-01 15:14N 54°42' W 001°12'0 0.0
2015-Aug-01 13:17N 54°42' W 001°12'0 0.0
2015-Aug-01 11:23N 54°42' W 001°12'0 0.0
2015-Aug-01 10:20N 54°42' W 001°12'0 0.0
2015-Aug-01 08:26N 54°42' W 001°12'0 0.0
2015-Aug-01 07:23N 54°42' W 001°12'0 0.0
2015-Aug-01 06:26N 54°42' W 001°12'0 0.0
2015-Jul-31 16:26N 54°42' W 001°12'0 0.0
2015-Jul-31 15:23N 54°42' W 001°12'1 1.4
2015-Jul-31 14:33N 54°41' W 001°10'6 6.1
2015-Jul-31 13:33N 54°42' W 001°00'1 1.0
2015-Jul-31 12:32N 54°41' W 000°60'0 0.1
2015-Jul-31 11:26N 54°42' W 000°60'0 0.0
2015-Jul-31 10:33N 54°42' W 000°60'0 0.0
2015-Jul-31 09:32N 54°42' W 000°60'0 0.0
2015-Jul-31 08:33N 54°42' W 000°60'0 0.2
2015-Jul-31 07:33N 54°41' W 000°60'0 0.0
2015-Jul-31 06:33N 54°41' W 000°60'0 0.0
2015-Jul-31 05:32N 54°41' W 000°60'0 0.0
2015-Jul-31 04:31N 54°41' W 000°60'0 0.0
2015-Jul-31 03:31N 54°41' W 000°60'0 0.0
2015-Jul-31 02:33N 54°41' W 000°60'3 2.6
2015-Jul-31 01:33N 54°43' W 000°56'1212.5
2015-Jul-31 00:33N 54°51' W 000°39'1211.6
2015-Jul-30 23:30N 54°53' W 000°18'1313.8
2015-Jul-30 22:33N 54°45' W 000°01'1313.1
2015-Jul-30 21:32N 54°48' E 000°22'21310.6
2015-Jul-30 01:31N 51°42' E 003°15'1313.6
2015-Jul-30 00:33N 51°31' E 003°26'1010.3
2015-Jul-29 23:34N 51°27' E 003°42'1 1.1
2015-Jul-29 22:33N 51°27' E 003°43'0 0.0
2015-Jul-29 21:33N 51°27' E 003°43'0 0.0
2015-Jul-29 20:33N 51°27' E 003°43'0 0.0
2015-Jul-29 19:33N 51°27' E 003°43'0 0.0
2015-Jul-29 18:33N 51°27' E 003°43'0 0.0
2015-Jul-29 17:33N 51°27' E 003°43'0 0.0
2015-Jul-29 16:33N 51°27' E 003°43'0 0.0
2015-Jul-29 15:33N 51°27' E 003°43'0 0.0
2015-Jul-29 14:33N 51°27' E 003°43'0 0.0
2015-Jul-29 13:33N 51°27' E 003°43'0 0.0
2015-Jul-29 12:33N 51°27' E 003°43'0 0.0
2015-Jul-29 11:30N 51°27' E 003°43'0 0.0
2015-Jul-29 10:33N 51°27' E 003°43'0 0.0
2015-Jul-29 09:33N 51°27' E 003°43'0 0.0
2015-Jul-29 08:33N 51°27' E 003°43'0 0.0
2015-Jul-29 07:30N 51°27' E 003°43'0 0.0
2015-Jul-29 06:33N 51°27' E 003°43'0 0.0
2015-Jul-29 05:33N 51°27' E 003°43'0 0.0
2015-Jul-29 04:33N 51°27' E 003°43'0 0.0
2015-Jul-29 03:33N 51°27' E 003°43'0 0.0
2015-Jul-29 02:33N 51°27' E 003°43'0 0.0
2015-Jul-29 01:33N 51°27' E 003°43'0 0.0
2015-Jul-29 00:33N 51°27' E 003°43'0 0.0
2015-Jul-28 23:33N 51°27' E 003°43'0 0.0
2015-Jul-28 22:33N 51°27' E 003°43'0 0.0
2015-Jul-28 21:33N 51°27' E 003°43'0 0.0
2015-Jul-28 20:33N 51°27' E 003°43'0 0.0
2015-Jul-28 19:33N 51°27' E 003°43'0 0.0
2015-Jul-28 18:33N 51°27' E 003°43'0 0.0
2015-Jul-28 17:33N 51°27' E 003°43'0 0.0
2015-Jul-28 16:33N 51°27' E 003°43'0 0.0
2015-Jul-28 15:33N 51°27' E 003°43'0 0.0
2015-Jul-28 14:33N 51°27' E 003°43'0 0.0
2015-Jul-28 13:33N 51°27' E 003°43'0 0.0
2015-Jul-28 12:33N 51°27' E 003°43'0 0.0
2015-Jul-28 11:33N 51°27' E 003°43'0 0.0
2015-Jul-28 10:33N 51°27' E 003°43'0 0.0
2015-Jul-28 09:33N 51°27' E 003°43'0 0.0
2015-Jul-28 08:33N 51°27' E 003°43'0 0.0
2015-Jul-28 07:33N 51°27' E 003°43'0 0.0
2015-Jul-28 06:33N 51°27' E 003°43'0 0.0
2015-Jul-28 05:33N 51°27' E 003°43'0 0.0
2015-Jul-28 04:33N 51°27' E 003°43'0 0.0
2015-Jul-28 03:33N 51°27' E 003°43'0 0.0
2015-Jul-28 02:33N 51°27' E 003°43'0 0.0
2015-Jul-28 01:33N 51°27' E 003°43'0 0.0
2015-Jul-28 00:33N 51°27' E 003°43'0 0.0
2015-Jul-27 23:33N 51°27' E 003°43'0 0.0
2015-Jul-27 22:33N 51°27' E 003°43'0 0.0
2015-Jul-27 21:33N 51°27' E 003°43'0 0.0
2015-Jul-27 20:33N 51°27' E 003°43'0 0.0
2015-Jul-27 19:33N 51°27' E 003°43'0 0.0
2015-Jul-27 18:33N 51°27' E 003°43'0 0.0
2015-Jul-27 17:33N 51°27' E 003°43'0 0.0
2015-Jul-27 16:33N 51°27' E 003°43'0 0.0
2015-Jul-27 15:33N 51°27' E 003°43'0 0.0
2015-Jul-27 14:33N 51°27' E 003°43'0 0.0
2015-Jul-27 13:33N 51°27' E 003°43'0 0.0
2015-Jul-27 12:33N 51°27' E 003°43'0 0.0
2015-Jul-27 11:33N 51°27' E 003°43'0 0.0
2015-Jul-27 10:33N 51°27' E 003°43'0 0.0
2015-Jul-27 09:33N 51°27' E 003°43'0 0.0
2015-Jul-27 08:33N 51°27' E 003°43'0 0.0
2015-Jul-27 07:33N 51°27' E 003°43'0 0.0
2015-Jul-27 06:33N 51°27' E 003°43'0 0.0
2015-Jul-27 05:33N 51°27' E 003°43'0 0.0
2015-Jul-27 04:33N 51°27' E 003°43'0 0.0
2015-Jul-27 03:33N 51°27' E 003°43'0 0.0
2015-Jul-27 02:33N 51°27' E 003°43'0 0.0
2015-Jul-27 01:33N 51°27' E 003°43'0 0.0
2015-Jul-27 00:33N 51°27' E 003°43'0 0.0
2015-Jul-26 23:33N 51°27' E 003°43'0 0.0
2015-Jul-26 22:33N 51°27' E 003°43'0 0.0
2015-Jul-26 21:33N 51°27' E 003°43'0 0.0
2015-Jul-26 20:33N 51°27' E 003°43'0 0.0
2015-Jul-26 19:33N 51°27' E 003°43'0 0.0
2015-Jul-26 18:33N 51°27' E 003°43'1 1.4
2015-Jul-26 17:33N 51°28' E 003°41'1010.2
2015-Jul-26 16:33N 51°25' E 003°25'1313.1
2015-Jul-26 15:33N 51°24' E 003°05'1212.2
2015-Jul-26 14:33N 51°22' E 002°45'8 8.1
2015-Jul-26 13:33N 51°22' E 002°32'1211.0
2015-Jul-26 12:27N 51°17' E 002°14'1213.7
2015-Jul-26 11:33N 51°11' E 001°57'1413.7
2015-Jul-26 10:33N 51°04' E 001°39'1514.7
2015-Jul-26 09:32N 50°51' E 001°27'11214.0
2015-Jul-26 01:33N 50°06' W 001°15'1615.1
2015-Jul-26 00:29N 50°02' W 001°39'  
Track history (hours):
 
Tides and Currents Weather Stations Pressure Air Temp Water Temp Dewpoint Dewpoint Depression Visibility Wind Speed Wind Dir Waves Ship Positions

Cielo Di Vaiano

Last reported at 2015-Aug-02 09:23 UTC. Time now 2015-Aug-02 10:23 UTC.
Position N 54°42' W 001°12'.

Length 183 m; draft 7 m.

Type: Cargo ship. MMSI: 636015421.

Date/timePositionNaut miles runAvg speedWind from/ knotsBaromVisibWave heightAir tempDewpointWater temp
2015-Aug-02 09:23N 54°42' W 001°12'0 0.0
2015-Aug-02 08:11N 54°42' W 001°12'0 0.0
2015-Aug-02 07:32N 54°42' W 001°12'0 0.0
2015-Aug-01 16:32N 54°42' W 001°12'0 0.0
2015-Aug-01 15:14N 54°42' W 001°12'0 0.0
2015-Aug-01 13:17N 54°42' W 001°12'0 0.0
2015-Aug-01 11:23N 54°42' W 001°12'0 0.0
2015-Aug-01 10:20N 54°42' W 001°12'0 0.0
2015-Aug-01 08:26N 54°42' W 001°12'0 0.0
2015-Aug-01 07:23N 54°42' W 001°12'0 0.0
2015-Aug-01 06:26N 54°42' W 001°12'0 0.0
2015-Jul-31 16:26N 54°42' W 001°12'0 0.0
2015-Jul-31 15:23N 54°42' W 001°12'1 1.4
2015-Jul-31 14:33N 54°41' W 001°10'6 6.1
2015-Jul-31 13:33N 54°42' W 001°00'1 1.0
2015-Jul-31 12:32N 54°41' W 000°60'0 0.1
2015-Jul-31 11:26N 54°42' W 000°60'0 0.0
2015-Jul-31 10:33N 54°42' W 000°60'0 0.0
2015-Jul-31 09:32N 54°42' W 000°60'0 0.0
2015-Jul-31 08:33N 54°42' W 000°60'0 0.2
2015-Jul-31 07:33N 54°41' W 000°60'0 0.0
2015-Jul-31 06:33N 54°41' W 000°60'0 0.0
2015-Jul-31 05:32N 54°41' W 000°60'0 0.0
2015-Jul-31 04:31N 54°41' W 000°60'0 0.0
2015-Jul-31 03:31N 54°41' W 000°60'0 0.0
2015-Jul-31 02:33N 54°41' W 000°60'3 2.6
2015-Jul-31 01:33N 54°43' W 000°56'1212.5
2015-Jul-31 00:33N 54°51' W 000°39'1211.6
2015-Jul-30 23:30N 54°53' W 000°18'1313.8
2015-Jul-30 22:33N 54°45' W 000°01'1313.1
2015-Jul-30 21:32N 54°48' E 000°22'21310.6
2015-Jul-30 01:31N 51°42' E 003°15'1313.6
2015-Jul-30 00:33N 51°31' E 003°26'1010.3
2015-Jul-29 23:34N 51°27' E 003°42'1 1.1
2015-Jul-29 22:33N 51°27' E 003°43'0 0.0
2015-Jul-29 21:33N 51°27' E 003°43'0 0.0
2015-Jul-29 20:33N 51°27' E 003°43'0 0.0
2015-Jul-29 19:33N 51°27' E 003°43'0 0.0
2015-Jul-29 18:33N 51°27' E 003°43'0 0.0
2015-Jul-29 17:33N 51°27' E 003°43'0 0.0
2015-Jul-29 16:33N 51°27' E 003°43'0 0.0
2015-Jul-29 15:33N 51°27' E 003°43'0 0.0
2015-Jul-29 14:33N 51°27' E 003°43'0 0.0
2015-Jul-29 13:33N 51°27' E 003°43'0 0.0
2015-Jul-29 12:33N 51°27' E 003°43'0 0.0
2015-Jul-29 11:30N 51°27' E 003°43'0 0.0
2015-Jul-29 10:33N 51°27' E 003°43'0 0.0
2015-Jul-29 09:33N 51°27' E 003°43'0 0.0
2015-Jul-29 08:33N 51°27' E 003°43'0 0.0
2015-Jul-29 07:30N 51°27' E 003°43'0 0.0
2015-Jul-29 06:33N 51°27' E 003°43'0 0.0
2015-Jul-29 05:33N 51°27' E 003°43'0 0.0
2015-Jul-29 04:33N 51°27' E 003°43'0 0.0
2015-Jul-29 03:33N 51°27' E 003°43'0 0.0
2015-Jul-29 02:33N 51°27' E 003°43'0 0.0
2015-Jul-29 01:33N 51°27' E 003°43'0 0.0
2015-Jul-29 00:33N 51°27' E 003°43'0 0.0
2015-Jul-28 23:33N 51°27' E 003°43'0 0.0
2015-Jul-28 22:33N 51°27' E 003°43'0 0.0
2015-Jul-28 21:33N 51°27' E 003°43'0 0.0
2015-Jul-28 20:33N 51°27' E 003°43'0 0.0
2015-Jul-28 19:33N 51°27' E 003°43'0 0.0
2015-Jul-28 18:33N 51°27' E 003°43'0 0.0
2015-Jul-28 17:33N 51°27' E 003°43'0 0.0
2015-Jul-28 16:33N 51°27' E 003°43'0 0.0
2015-Jul-28 15:33N 51°27' E 003°43'0 0.0
2015-Jul-28 14:33N 51°27' E 003°43'0 0.0
2015-Jul-28 13:33N 51°27' E 003°43'0 0.0
2015-Jul-28 12:33N 51°27' E 003°43'0 0.0
2015-Jul-28 11:33N 51°27' E 003°43'0 0.0
2015-Jul-28 10:33N 51°27' E 003°43'0 0.0
2015-Jul-28 09:33N 51°27' E 003°43'0 0.0
2015-Jul-28 08:33N 51°27' E 003°43'0 0.0
2015-Jul-28 07:33N 51°27' E 003°43'0 0.0
2015-Jul-28 06:33N 51°27' E 003°43'0 0.0
2015-Jul-28 05:33N 51°27' E 003°43'0 0.0
2015-Jul-28 04:33N 51°27' E 003°43'0 0.0
2015-Jul-28 03:33N 51°27' E 003°43'0 0.0
2015-Jul-28 02:33N 51°27' E 003°43'0 0.0
2015-Jul-28 01:33N 51°27' E 003°43'0 0.0
2015-Jul-28 00:33N 51°27' E 003°43'0 0.0
2015-Jul-27 23:33N 51°27' E 003°43'0 0.0
2015-Jul-27 22:33N 51°27' E 003°43'0 0.0
2015-Jul-27 21:33N 51°27' E 003°43'0 0.0
2015-Jul-27 20:33N 51°27' E 003°43'0 0.0
2015-Jul-27 19:33N 51°27' E 003°43'0 0.0
2015-Jul-27 18:33N 51°27' E 003°43'0 0.0
2015-Jul-27 17:33N 51°27' E 003°43'0 0.0
2015-Jul-27 16:33N 51°27' E 003°43'0 0.0
2015-Jul-27 15:33N 51°27' E 003°43'0 0.0
2015-Jul-27 14:33N 51°27' E 003°43'0 0.0
2015-Jul-27 13:33N 51°27' E 003°43'0 0.0
2015-Jul-27 12:33N 51°27' E 003°43'0 0.0
2015-Jul-27 11:33N 51°27' E 003°43'0 0.0
2015-Jul-27 10:33N 51°27' E 003°43'0 0.0
2015-Jul-27 09:33N 51°27' E 003°43'0 0.0
2015-Jul-27 08:33N 51°27' E 003°43'0 0.0
2015-Jul-27 07:33N 51°27' E 003°43'0 0.0
2015-Jul-27 06:33N 51°27' E 003°43'0 0.0
2015-Jul-27 05:33N 51°27' E 003°43'0 0.0
2015-Jul-27 04:33N 51°27' E 003°43'0 0.0
2015-Jul-27 03:33N 51°27' E 003°43'0 0.0
2015-Jul-27 02:33N 51°27' E 003°43'0 0.0
2015-Jul-27 01:33N 51°27' E 003°43'0 0.0
2015-Jul-27 00:33N 51°27' E 003°43'0 0.0
2015-Jul-26 23:33N 51°27' E 003°43'0 0.0
2015-Jul-26 22:33N 51°27' E 003°43'0 0.0
2015-Jul-26 21:33N 51°27' E 003°43'0 0.0
2015-Jul-26 20:33N 51°27' E 003°43'0 0.0
2015-Jul-26 19:33N 51°27' E 003°43'0 0.0
2015-Jul-26 18:33N 51°27' E 003°43'1 1.4
2015-Jul-26 17:33N 51°28' E 003°41'1010.2
2015-Jul-26 16:33N 51°25' E 003°25'1313.1
2015-Jul-26 15:33N 51°24' E 003°05'1212.2
2015-Jul-26 14:33N 51°22' E 002°45'8 8.1
2015-Jul-26 13:33N 51°22' E 002°32'1211.0
2015-Jul-26 12:27N 51°17' E 002°14'1213.7
2015-Jul-26 11:33N 51°11' E 001°57'1413.7
2015-Jul-26 10:33N 51°04' E 001°39'1514.7
2015-Jul-26 09:32N 50°51' E 001°27'11214.0
2015-Jul-26 01:33N 50°06' W 001°15'1615.1
2015-Jul-26 00:29N 50°02' W 001°39'  

Dump ship's entire track history